Time;durP1;ratioP1;P1;durP2;ratioP2;P2;SDS_P1;SDS_P2;PMS_P1;PMS_P2;Temp;Humidity;BMP_temperature;BMP_pressure;BME280_temperature;BME280_humidity;BME280_pressure;Samples;Min_cycle;Max_cycle;Signal;HPM_P1;HPM_P2
2023/12/31 05:22:32;;;;;;;12.60;5.90;;;;;;;3.41;100.00;99232.25;5080897;28;20413;-34
2023/12/31 05:24:58;;;;;;;8.52;5.68;;;;;;;3.44;100.00;99232.75;5089095;28;20036;-35
2023/12/31 05:27:23;;;;;;;9.18;5.32;;;;;;;3.46;100.00;99224.72;5074578;28;20501;-35
2023/12/31 05:29:48;;;;;;;15.02;6.10;;;;;;;3.42;100.00;99218.91;5068881;28;20119;-35
2023/12/31 05:32:14;;;;;;;15.75;5.82;;;;;;;3.42;100.00;99232.09;5068963;28;20431;-35
2023/12/31 05:34:39;;;;;;;12.77;5.60;;;;;;;3.33;100.00;99225.13;5069134;28;20036;-35
2023/12/31 05:37:05;;;;;;;12.20;6.50;;;;;;;3.46;100.00;99230.81;5068653;28;20045;-34
2023/12/31 05:39:30;;;;;;;8.70;5.18;;;;;;;3.34;100.00;99228.56;5068685;28;20045;-35
2023/12/31 05:41:55;;;;;;;12.40;5.85;;;;;;;3.39;100.00;99240.31;5068634;28;20033;-38
2023/12/31 05:44:21;;;;;;;7.80;4.10;;;;;;;3.38;100.00;99246.53;5068707;28;20063;-35
2023/12/31 05:46:47;;;;;;;5.72;3.47;;;;;;;3.55;100.00;99250.13;5068120;28;20147;-36
2023/12/31 05:49:12;;;;;;;5.38;3.80;;;;;;;3.60;100.00;99252.31;5068548;28;20115;-36
2023/12/31 05:51:38;;;;;;;5.30;2.65;;;;;;;3.72;100.00;99253.72;5068560;28;20043;-37
2023/12/31 05:54:03;;;;;;;6.07;3.28;;;;;;;3.75;100.00;99248.97;5068392;28;20059;-35
2023/12/31 05:56:28;;;;;;;6.05;2.78;;;;;;;3.85;100.00;99248.03;5068228;28;20033;-35
2023/12/31 05:58:54;;;;;;;5.80;2.90;;;;;;;4.02;100.00;99250.63;5068487;28;20473;-35
2023/12/31 06:01:21;;;;;;;4.80;2.45;;;;;;;4.10;100.00;99247.19;5067043;28;20041;-37
2023/12/31 06:03:47;;;;;;;3.70;2.10;;;;;;;4.09;100.00;99249.00;5068111;28;20476;-35
2023/12/31 06:06:12;;;;;;;5.15;2.38;;;;;;;4.07;100.00;99245.72;5068017;28;20043;-37
2023/12/31 06:08:37;;;;;;;4.00;2.10;;;;;;;4.16;100.00;99243.13;5068254;28;20467;-35
2023/12/31 06:11:03;;;;;;;3.50;2.40;;;;;;;4.06;100.00;99243.25;5068177;28;20024;-36
2023/12/31 06:13:28;;;;;;;6.43;2.50;;;;;;;4.13;100.00;99241.63;5068145;28;20389;-36
2023/12/31 06:15:54;;;;;;;3.65;2.38;;;;;;;4.03;100.00;99239.09;5067785;28;20041;-35
2023/12/31 06:18:19;;;;;;;4.10;2.53;;;;;;;4.22;100.00;99240.69;5068058;28;20032;-35
2023/12/31 06:20:44;;;;;;;4.60;2.33;;;;;;;4.08;100.00;99239.47;5068062;28;20048;-35
2023/12/31 06:23:10;;;;;;;4.57;2.85;;;;;;;4.17;100.00;99232.41;5059763;28;20039;-35
2023/12/31 06:25:35;;;;;;;9.25;2.88;;;;;;;4.17;100.00;99227.13;5067633;28;20040;-35
2023/12/31 06:28:01;;;;;;;4.35;2.13;;;;;;;4.34;100.00;99220.97;5067662;28;20055;-35
2023/12/31 06:30:26;;;;;;;4.32;2.15;;;;;;;4.53;100.00;99206.72;5067717;28;20029;-35
2023/12/31 06:32:51;;;;;;;5.50;2.60;;;;;;;4.69;100.00;99218.28;5060240;28;20052;-35
2023/12/31 06:35:17;;;;;;;4.60;2.20;;;;;;;4.74;100.00;99213.38;5054420;28;20108;-35
2023/12/31 06:37:42;;;;;;;3.60;2.25;;;;;;;4.84;100.00;99212.25;5054112;28;20519;-35
2023/12/31 06:40:08;;;;;;;4.78;2.17;;;;;;;4.89;100.00;99214.41;5054314;28;20025;-35
2023/12/31 06:42:34;;;;;;;3.13;2.40;;;;;;;4.94;100.00;99204.16;5054373;28;20127;-35
2023/12/31 06:44:59;;;;;;;4.20;2.60;;;;;;;5.10;100.00;99193.66;5054183;28;20127;-36
2023/12/31 06:47:24;;;;;;;3.05;1.92;;;;;;;5.06;100.00;99187.03;5052965;28;20047;-38
2023/12/31 06:49:52;;;;;;;4.85;2.53;;;;;;;5.14;100.00;99194.13;5054140;28;20057;-35
2023/12/31 06:52:18;;;;;;;;;;;;;;;5.11;100.00;99203.22;5054568;28;20094;-35
2023/12/31 06:54:43;;;;;;;9.98;2.50;;;;;;;4.94;100.00;99200.72;5052949;28;19925;-36
2023/12/31 06:57:09;;;;;;;7.00;2.92;;;;;;;4.61;100.00;99198.81;5053752;28;20060;-38
2023/12/31 06:59:34;;;;;;;3.55;2.42;;;;;;;4.44;100.00;99183.94;5054021;28;20114;-36
2023/12/31 07:02:00;;;;;;;6.13;2.75;;;;;;;4.63;100.00;99183.69;5054026;28;20037;-35
2023/12/31 07:04:26;;;;;;;5.75;2.92;;;;;;;4.63;100.00;99177.56;5053962;28;20052;-35
2023/12/31 07:06:51;;;;;;;6.35;3.08;;;;;;;4.58;100.00;99178.06;5053441;28;20040;-36
2023/12/31 07:09:17;;;;;;;6.43;3.50;;;;;;;4.45;100.00;99176.84;5053816;28;20037;-35
2023/12/31 07:11:42;;;;;;;5.32;2.78;;;;;;;4.36;100.00;99178.63;5053732;28;20191;-36
2023/12/31 07:14:07;;;;;;;5.07;2.85;;;;;;;4.23;100.00;99173.78;5053505;28;20032;-36
2023/12/31 07:16:33;;;;;;;6.40;2.90;;;;;;;4.41;100.00;99164.97;5053238;28;20037;-35
2023/12/31 07:18:58;;;;;;;5.53;3.20;;;;;;;4.38;100.00;99158.22;5053557;28;20036;-34
2023/12/31 07:21:24;;;;;;;4.75;2.85;;;;;;;4.38;100.00;99150.31;5053204;28;20400;-36
2023/12/31 07:23:50;;;;;;;5.75;2.80;;;;;;;4.35;100.00;99150.59;5053232;28;20033;-36
2023/12/31 07:26:26;;;;;;;6.70;3.00;;;;;;;4.35;100.00;99151.44;5052747;28;20108;-38
2023/12/31 07:28:52;;;;;;;4.78;3.00;;;;;;;4.19;100.00;99150.56;5051810;28;20041;-37
2023/12/31 07:31:17;;;;;;;4.63;2.55;;;;;;;4.12;100.00;99149.53;5053055;28;20385;-35
2023/12/31 07:33:43;;;;;;;6.25;3.53;;;;;;;4.18;100.00;99148.91;5053109;28;20112;-35
2023/12/31 07:36:08;;;;;;;7.32;4.00;;;;;;;4.35;100.00;99148.78;5052649;28;20087;-34
2023/12/31 07:38:34;;;;;;;6.25;3.03;;;;;;;4.39;100.00;99148.50;5053179;28;20114;-35
2023/12/31 07:40:59;;;;;;;8.40;3.15;;;;;;;4.66;100.00;99136.84;5052638;28;20029;-35
2023/12/31 07:43:25;;;;;;;5.47;2.72;;;;;;;4.76;100.00;99126.94;5052240;28;20474;-35
2023/12/31 07:45:50;;;;;;;4.95;2.97;;;;;;;4.60;100.00;99127.75;5052210;28;20037;-35
2023/12/31 07:48:15;;;;;;;4.57;2.83;;;;;;;4.88;100.00;99115.91;5053113;28;20473;-37
2023/12/31 07:50:41;;;;;;;5.82;3.72;;;;;;;4.88;100.00;99113.28;5052958;28;20051;-34
2023/12/31 07:53:06;;;;;;;4.22;3.00;;;;;;;5.08;100.00;99102.41;5053016;28;20408;-35
2023/12/31 07:55:32;;;;;;;5.88;3.17;;;;;;;5.22;100.00;99100.94;5052850;28;20033;-36
2023/12/31 07:57:57;;;;;;;5.10;3.10;;;;;;;5.20;100.00;99094.97;5052470;28;20040;-35
2023/12/31 08:00:23;;;;;;;3.58;2.35;;;;;;;5.12;100.00;99093.16;5053393;28;20040;-35
2023/12/31 08:02:48;;;;;;;5.13;2.80;;;;;;;5.17;100.00;99094.31;5055445;28;20036;-35
2023/12/31 08:05:14;;;;;;;5.63;3.60;;;;;;;5.09;100.00;99096.16;5058590;28;20127;-35
2023/12/31 08:07:40;;;;;;;5.47;3.60;;;;;;;5.12;100.00;99087.88;5055870;28;20500;-37
2023/12/31 08:10:06;;;;;;;4.80;3.75;;;;;;;5.18;100.00;99093.31;5052219;28;20055;-34
2023/12/31 08:12:31;;;;;;;9.80;4.90;;;;;;;5.16;100.00;99081.28;5052331;28;20033;-34
2023/12/31 08:14:56;;;;;;;11.80;4.53;;;;;;;5.25;100.00;99079.47;5053352;28;20036;-35
2023/12/31 08:17:23;;;;;;;7.38;4.28;;;;;;;5.26;100.00;99089.03;5061492;28;20488;-35
2023/12/31 08:19:49;;;;;;;7.60;4.23;;;;;;;5.24;100.00;99097.13;5055822;28;20043;-35
2023/12/31 08:22:14;;;;;;;8.65;4.45;;;;;;;5.42;100.00;99092.47;5052054;28;20496;-38
2023/12/31 08:24:39;;;;;;;5.85;4.00;;;;;;;5.52;100.00;99088.81;5052441;28;20124;-36
2023/12/31 08:27:05;;;;;;;5.35;3.72;;;;;;;5.38;100.00;99099.06;5051520;28;20047;-36
2023/12/31 08:29:30;;;;;;;5.32;3.33;;;;;;;5.57;100.00;99089.97;5052390;28;20404;-38
2023/12/31 08:31:56;;;;;;;10.45;5.13;;;;;;;5.77;100.00;99089.56;5052274;28;20065;-36
2023/12/31 08:34:21;;;;;;;6.65;4.10;;;;;;;5.73;100.00;99092.53;5052436;28;20064;-36
2023/12/31 08:36:46;;;;;;;6.28;3.42;;;;;;;5.75;100.00;99091.56;5051927;28;20033;-40
2023/12/31 08:39:12;;;;;;;6.32;3.75;;;;;;;5.84;100.00;99078.13;5050960;28;20174;-35
2023/12/31 08:41:37;;;;;;;7.70;4.28;;;;;;;5.53;100.00;99083.34;5052071;28;20037;-35
2023/12/31 08:44:03;;;;;;;6.18;3.92;;;;;;;6.04;100.00;99075.13;5052159;28;20048;-36
2023/12/31 08:46:30;;;;;;;7.32;4.22;;;;;;;6.04;100.00;99077.75;5051819;28;20055;-36
2023/12/31 08:48:55;;;;;;;5.32;3.40;;;;;;;6.17;100.00;99073.56;5051729;28;20075;-36
2023/12/31 08:51:20;;;;;;;7.43;3.55;;;;;;;6.44;100.00;99071.44;5051981;28;20064;-38
2023/12/31 08:53:46;;;;;;;6.90;3.35;;;;;;;6.41;100.00;99067.31;5052072;28;20075;-35
2023/12/31 08:56:11;;;;;;;7.82;4.00;;;;;;;6.52;100.00;99066.91;5051193;28;20037;-36
2023/12/31 08:58:37;;;;;;;6.90;4.38;;;;;;;6.59;100.00;99059.09;5052002;28;20091;-37
2023/12/31 09:01:02;;;;;;;6.90;3.97;;;;;;;6.10;100.00;99056.75;5051828;28;20083;-35
2023/12/31 09:03:28;;;;;;;7.43;4.43;;;;;;;6.33;100.00;99055.97;5051834;28;20064;-36
2023/12/31 09:05:53;;;;;;;6.00;4.18;;;;;;;6.23;100.00;99059.66;5051370;28;20048;-39
2023/12/31 09:08:18;;;;;;;7.03;4.75;;;;;;;6.29;100.00;99049.38;5051645;28;20056;-38
2023/12/31 09:10:45;;;;;;;8.23;4.32;;;;;;;6.34;100.00;99044.41;5051507;28;20041;-39
2023/12/31 09:13:10;;;;;;;7.05;3.72;;;;;;;7.05;100.00;99041.34;5051611;28;20500;-41
2023/12/31 09:15:36;;;;;;;7.97;3.90;;;;;;;7.73;100.00;99047.41;5051318;28;20064;-39
2023/12/31 09:18:02;;;;;;;6.60;3.38;;;;;;;8.11;100.00;99041.97;5050011;28;20033;-39
2023/12/31 09:20:28;;;;;;;10.40;4.57;;;;;;;8.86;100.00;99030.91;5045047;28;20113;-39
2023/12/31 09:22:53;;;;;;;7.55;4.10;;;;;;;9.92;98.79;99044.91;5051675;28;20548;-38
2023/12/31 09:25:20;;;;;;;7.90;4.05;;;;;;;9.60;97.37;99045.53;5051986;28;20036;-39
2023/12/31 09:27:45;;;;;;;6.45;4.38;;;;;;;8.69;100.00;99045.47;5052111;28;20067;-38
2023/12/31 09:30:11;;;;;;;7.10;3.70;;;;;;;8.12;100.00;99040.97;5052519;28;20033;-40
2023/12/31 09:32:36;;;;;;;5.97;4.15;;;;;;;8.14;100.00;99046.88;5052081;28;20110;-40
2023/12/31 09:35:02;;;;;;;5.07;3.40;;;;;;;7.77;100.00;99027.50;5051620;28;20047;-38
2023/12/31 09:37:29;;;;;;;6.40;3.35;;;;;;;7.35;100.00;99022.84;5051520;28;20041;-39
2023/12/31 09:39:55;;;;;;;9.15;3.60;;;;;;;7.84;100.00;99025.75;5051305;28;20399;-41
2023/12/31 09:42:29;;;;;;;4.05;2.72;;;;;;;7.60;100.00;99016.25;5051029;28;20120;-33
2023/12/31 09:44:55;;;;;;;3.85;2.70;;;;;;;8.29;100.00;99004.44;5052451;28;20063;-38
2023/12/31 09:47:22;;;;;;;4.85;3.20;;;;;;;8.70;100.00;98997.50;5051012;28;20051;-33
2023/12/31 09:49:49;;;;;;;8.15;3.22;;;;;;;8.68;100.00;98982.78;5051125;28;20073;-33
2023/12/31 09:52:14;;;;;;;4.28;3.25;;;;;;;8.48;100.00;98984.44;5051152;28;20116;-34
2023/12/31 09:54:41;;;;;;;4.95;2.88;;;;;;;8.76;100.00;98989.78;5051107;28;20117;-34
2023/12/31 09:57:08;;;;;;;5.10;2.90;;;;;;;8.64;100.00;98979.66;5050805;28;20036;-34
2023/12/31 09:59:35;;;;;;;6.40;3.13;;;;;;;9.41;100.00;98978.78;5051522;28;20452;-34
2023/12/31 10:02:04;;;;;;;5.40;3.00;;;;;;;8.97;100.00;98981.75;5050829;28;20033;-39
2023/12/31 10:04:30;;;;;;;6.40;2.55;;;;;;;8.74;100.00;98982.00;5051054;28;20044;-38
2023/12/31 10:06:57;;;;;;;5.63;2.70;;;;;;;8.82;100.00;98984.53;5051336;28;20017;-38
2023/12/31 10:09:27;;;;;;;5.72;3.55;;;;;;;8.65;100.00;98983.97;5056001;28;20497;-40
2023/12/31 10:11:54;;;;;;;5.20;2.72;;;;;;;9.02;100.00;98983.84;5054924;28;20040;-39
2023/12/31 10:14:19;;;;;;;4.50;2.90;;;;;;;8.84;100.00;98977.16;5054341;28;20388;-39
2023/12/31 10:16:46;;;;;;;5.22;3.35;;;;;;;9.14;100.00;98983.13;5054511;28;20051;-37
2023/12/31 10:19:15;;;;;;;5.55;3.85;;;;;;;8.88;100.00;98983.75;5054807;28;20029;-37
2023/12/31 10:21:42;;;;;;;7.75;4.07;;;;;;;8.65;100.00;98972.53;5054516;28;20381;-38
2023/12/31 10:24:08;;;;;;;7.45;4.13;;;;;;;8.69;100.00;98976.44;5054746;28;20033;-39
2023/12/31 10:26:34;;;;;;;7.75;5.05;;;;;;;8.35;100.00;98966.53;5054517;28;20040;-39
2023/12/31 10:29:00;;;;;;;9.88;4.75;;;;;;;8.72;100.00;98972.56;5054260;28;20462;-39
2023/12/31 10:31:25;;;;;;;7.07;4.50;;;;;;;8.75;100.00;98988.97;5054303;28;20059;-38
2023/12/31 10:33:51;;;;;;;7.82;4.93;;;;;;;8.48;100.00;98989.75;5054253;28;20033;-39
2023/12/31 10:36:23;;;;;;;9.90;5.38;;;;;;;8.56;100.00;98994.91;5053119;28;20033;-39
2023/12/31 10:38:50;;;;;;;8.32;5.15;;;;;;;8.38;100.00;99001.47;5054174;28;20410;-39
2023/12/31 10:41:21;;;;;;;7.53;4.70;;;;;;;8.00;100.00;99032.66;5053663;28;20033;-38
2023/12/31 10:43:50;;;;;;;9.43;3.83;;;;;;;7.94;100.00;99088.25;5054347;28;20392;-37
2023/12/31 10:46:18;;;;;;;9.00;4.20;;;;;;;7.59;100.00;99135.72;5053330;28;20558;-39
2023/12/31 10:48:55;;;;;;;6.78;3.63;;;;;;;7.40;100.00;99130.91;5054139;28;20052;-37
2023/12/31 10:51:26;;;;;;;4.50;3.13;;;;;;;7.27;100.00;99137.66;5053536;28;20041;-37
2023/12/31 10:53:54;;;;;;;6.65;4.15;;;;;;;7.15;100.00;99133.78;5053984;28;20044;-38
2023/12/31 10:56:21;;;;;;;8.63;3.67;;;;;;;7.25;100.00;99137.00;5053743;28;20040;-39
2023/12/31 10:58:47;;;;;;;5.90;3.67;;;;;;;7.26;100.00;99149.25;5053722;28;20056;-39
2023/12/31 11:01:15;;;;;;;6.22;3.80;;;;;;;7.33;100.00;99142.22;5053668;28;20460;-37
2023/12/31 11:03:42;;;;;;;5.78;3.55;;;;;;;7.31;100.00;99144.25;5053975;28;20041;-37
2023/12/31 11:06:09;;;;;;;6.05;3.67;;;;;;;7.43;100.00;99147.25;5053566;28;20037;-38
2023/12/31 11:08:37;;;;;;;5.13;3.42;;;;;;;7.60;100.00;99151.41;5053828;28;20041;-41
2023/12/31 11:11:03;;;;;;;7.90;4.18;;;;;;;7.59;100.00;99151.59;5053130;28;20162;-38
2023/12/31 11:13:30;;;;;;;7.50;3.60;;;;;;;7.71;100.00;99162.59;5053860;28;20039;-38
2023/12/31 11:16:01;;;;;;;6.50;3.72;;;;;;;7.91;100.00;99170.84;5053135;28;20033;-39
2023/12/31 11:18:54;;;;;;;8.75;3.85;;;;;;;7.99;100.00;99170.75;5053797;28;20041;-38
2023/12/31 11:21:48;;;;;;;4.40;3.20;;;;;;;7.96;100.00;99173.78;5053593;28;20051;-38
2023/12/31 11:24:18;;;;;;;3.65;2.50;;;;;;;8.07;100.00;99171.47;5053441;28;20116;-39
2023/12/31 11:26:43;;;;;;;3.78;2.85;;;;;;;7.98;100.00;99169.94;5051198;28;20037;-37
2023/12/31 11:29:12;;;;;;;4.75;2.58;;;;;;;8.02;100.00;99180.97;5045965;28;20618;-39
2023/12/31 11:31:41;;;;;;;4.38;2.35;;;;;;;8.07;100.00;99176.78;5045333;28;20471;-38
2023/12/31 11:34:07;;;;;;;3.13;2.10;;;;;;;8.04;100.00;99176.34;5047165;28;20044;-39
2023/12/31 11:36:32;;;;;;;2.97;2.33;;;;;;;8.28;100.00;99170.75;5045908;28;20511;-38
2023/12/31 11:38:59;;;;;;;5.50;2.40;;;;;;;8.17;100.00;99165.91;5046101;28;20025;-39
2023/12/31 11:41:49;;;;;;;3.50;2.40;;;;;;;8.18;100.00;99167.53;5047242;28;20094;-38
2023/12/31 11:44:33;;;;;;;5.38;2.55;;;;;;;8.20;100.00;99165.53;5047458;28;20098;-38
2023/12/31 11:46:59;;;;;;;4.60;2.08;;;;;;;8.19;100.00;99153.28;5045399;28;20087;-38
2023/12/31 11:49:25;;;;;;;3.55;2.05;;;;;;;8.27;100.00;99158.47;5047114;28;20115;-38
2023/12/31 11:51:56;;;;;;;5.28;2.60;;;;;;;8.26;100.00;99159.47;5042537;28;20037;-38
2023/12/31 11:54:22;;;;;;;2.95;1.75;;;;;;;8.12;100.00;99147.88;5047486;28;20037;-39
2023/12/31 11:56:51;;;;;;;4.68;2.25;;;;;;;8.29;100.00;99153.00;5044299;28;20047;-37
2023/12/31 11:59:17;;;;;;;3.10;1.80;;;;;;;8.35;100.00;99149.63;5047368;28;20033;-38
2023/12/31 12:01:43;;;;;;;4.20;2.00;;;;;;;8.30;100.00;99152.00;5044404;28;20051;-38
2023/12/31 12:04:12;;;;;;;3.47;1.70;;;;;;;8.25;100.00;99149.06;5047315;28;20036;-37
2023/12/31 12:06:38;;;;;;;5.30;2.03;;;;;;;8.18;100.00;99151.63;5044913;28;20037;-39
2023/12/31 12:09:05;;;;;;;2.17;1.38;;;;;;;8.18;100.00;99153.47;5046331;28;20044;-39
2023/12/31 12:11:32;;;;;;;3.65;1.38;;;;;;;8.39;100.00;99165.00;5045688;28;20033;-38
2023/12/31 12:13:58;;;;;;;2.25;1.50;;;;;;;8.25;100.00;99168.44;5044775;28;20404;-39
2023/12/31 12:16:26;;;;;;;1.27;0.88;;;;;;;8.28;100.00;99173.41;5048878;28;20041;-39
2023/12/31 12:19:01;;;;;;;1.77;1.20;;;;;;;8.25;100.00;99173.75;5052405;28;20029;-39
2023/12/31 12:21:27;;;;;;;1.02;0.93;;;;;;;8.18;100.00;99167.53;5052163;28;20045;-41
2023/12/31 12:23:53;;;;;;;1.58;1.00;;;;;;;8.08;100.00;99190.84;5048033;28;20033;-40
2023/12/31 12:26:20;;;;;;;2.10;1.25;;;;;;;8.13;100.00;99164.63;5045036;28;20060;-39
2023/12/31 12:28:55;;;;;;;0.93;0.70;;;;;;;8.19;100.00;99169.19;5044490;28;20033;-38
2023/12/31 12:31:21;;;;;;;2.42;1.13;;;;;;;8.14;100.00;99168.91;5039811;28;20106;-39
2023/12/31 12:33:53;;;;;;;1.52;1.02;;;;;;;8.19;100.00;99177.16;5051343;28;20091;-38
2023/12/31 12:36:20;;;;;;;1.45;0.95;;;;;;;7.99;100.00;99179.53;5050230;28;20036;-41
2023/12/31 12:38:48;;;;;;;1.48;0.93;;;;;;;7.99;100.00;99173.41;5052128;28;20112;-39
2023/12/31 12:41:23;;;;;;;;;;;;;;;8.14;100.00;99182.16;5050487;28;20033;-39
2023/12/31 12:44:00;;;;;;;1.83;1.08;;;;;;;8.13;100.00;99181.34;5052224;28;19920;-39
2023/12/31 12:46:27;;;;;;;1.65;1.08;;;;;;;8.11;100.00;99183.38;5051937;28;20033;-41
2023/12/31 12:48:52;;;;;;;2.95;1.10;;;;;;;8.17;100.00;99181.81;5052017;28;20037;-37
2023/12/31 12:51:18;;;;;;;2.22;1.20;;;;;;;8.31;100.00;99169.56;5052022;28;20036;-39
2023/12/31 12:53:43;;;;;;;1.77;1.13;;;;;;;8.13;100.00;99173.41;5051900;28;20044;-41
2023/12/31 12:56:09;;;;;;;1.20;0.95;;;;;;;8.27;100.00;99170.91;5051417;28;20120;-41
2023/12/31 12:58:34;;;;;;;1.55;0.90;;;;;;;8.40;100.00;99171.13;5051919;28;20381;-40
2023/12/31 13:01:00;;;;;;;0.57;0.57;;;;;;;8.26;100.00;99180.72;5052234;28;20058;-41
2023/12/31 13:03:25;;;;;;;2.33;0.90;;;;;;;8.38;100.00;99181.09;5052445;28;20407;-38
2023/12/31 13:05:51;;;;;;;2.25;0.90;;;;;;;8.16;100.00;99186.31;5053160;28;20041;-38
2023/12/31 13:08:16;;;;;;;1.00;0.80;;;;;;;8.20;100.00;99197.34;5051627;28;20095;-39
2023/12/31 13:10:41;;;;;;;2.00;1.20;;;;;;;8.22;100.00;99191.88;5059778;28;20033;-39
2023/12/31 13:13:07;;;;;;;3.45;0.93;;;;;;;8.34;100.00;99198.34;5051511;28;20037;-36
2023/12/31 13:15:33;;;;;;;2.78;0.80;;;;;;;8.43;100.00;99178.72;5051494;28;20037;-39
2023/12/31 13:17:59;;;;;;;1.13;0.80;;;;;;;8.33;100.00;99189.56;5051499;28;20037;-41
2023/12/31 13:20:25;;;;;;;1.45;0.80;;;;;;;8.27;100.00;99187.66;5051385;28;20037;-40
2023/12/31 13:22:50;;;;;;;0.80;0.80;;;;;;;8.40;100.00;99189.69;5051346;28;20374;-37
2023/12/31 13:25:16;;;;;;;0.50;0.50;;;;;;;8.30;100.00;99176.69;5051422;28;20411;-43
2023/12/31 13:27:41;;;;;;;0.70;0.70;;;;;;;8.29;100.00;99156.47;5051231;28;20048;-38
2023/12/31 13:30:07;;;;;;;0.82;0.68;;;;;;;8.23;100.00;99167.00;5051647;28;20040;-40
2023/12/31 13:32:33;;;;;;;1.02;0.63;;;;;;;8.22;100.00;99174.16;5051383;28;20120;-40
2023/12/31 13:34:58;;;;;;;1.02;0.52;;;;;;;8.20;100.00;99170.84;5051297;28;20040;-40
2023/12/31 13:37:24;;;;;;;0.90;0.50;;;;;;;8.26;100.00;99159.47;5051083;28;20128;-40
2023/12/31 13:39:49;;;;;;;0.73;0.50;;;;;;;8.34;100.00;99159.38;5056117;28;20056;-41
2023/12/31 13:42:14;;;;;;;0.50;0.40;;;;;;;8.35;100.00;99152.25;5051670;28;20037;-42
2023/12/31 13:44:40;;;;;;;0.80;0.50;;;;;;;8.37;100.00;99148.44;5055361;28;20089;-42
2023/12/31 13:47:05;;;;;;;0.68;0.50;;;;;;;8.36;100.00;99153.94;5055046;28;20450;-41
2023/12/31 13:49:31;;;;;;;1.15;0.57;;;;;;;8.26;100.00;99156.00;5054169;28;20052;-42
2023/12/31 13:51:56;;;;;;;0.40;0.40;;;;;;;8.29;100.00;99156.47;5055300;28;20400;-43
2023/12/31 13:54:22;;;;;;;0.50;0.50;;;;;;;8.25;100.00;99144.56;5055341;28;20064;-40
2023/12/31 13:56:48;;;;;;;1.65;0.65;;;;;;;8.23;100.00;99146.59;5055026;28;20070;-43
2023/12/31 13:59:14;;;;;;;0.40;0.40;;;;;;;8.27;100.00;99139.06;5055341;28;20032;-40
2023/12/31 14:01:40;;;;;;;0.90;0.52;;;;;;;8.17;100.00;99134.06;5055112;28;20037;-41
2023/12/31 14:04:06;;;;;;;0.57;0.57;;;;;;;8.23;100.00;99136.00;5055428;28;20041;-39
2023/12/31 14:06:33;;;;;;;0.45;0.45;;;;;;;8.15;100.00;99136.09;5054750;28;20120;-39
2023/12/31 14:08:59;;;;;;;1.23;0.73;;;;;;;8.15;100.00;99130.78;5055121;28;20056;-39
2023/12/31 14:11:24;;;;;;;1.05;0.75;;;;;;;8.30;99.48;99139.53;5055172;28;20034;-39
2023/12/31 14:13:50;;;;;;;1.23;1.02;;;;;;;8.29;99.89;99158.31;5055065;28;20037;-39
2023/12/31 14:16:15;;;;;;;0.60;0.50;;;;;;;8.22;99.28;99157.41;5054577;28;20400;-40
2023/12/31 14:18:40;;;;;;;1.85;1.02;;;;;;;8.18;99.56;99154.28;5054849;28;20044;-39
2023/12/31 14:21:06;;;;;;;1.45;0.85;;;;;;;8.21;98.92;99153.91;5054480;28;20037;-38
2023/12/31 14:23:32;;;;;;;1.38;0.60;;;;;;;8.15;99.44;99144.06;5054825;28;20559;-39
2023/12/31 14:25:57;;;;;;;1.00;0.80;;;;;;;8.15;99.39;99144.06;5054431;28;20041;-41
2023/12/31 14:28:22;;;;;;;0.88;0.77;;;;;;;8.15;98.48;99144.88;5054778;28;20531;-39
2023/12/31 14:30:48;;;;;;;2.03;1.13;;;;;;;8.10;99.33;99143.78;5053829;28;20033;-39
2023/12/31 14:33:14;;;;;;;0.77;0.63;;;;;;;8.20;98.27;99149.59;5048374;28;20035;-42
2023/12/31 14:35:39;;;;;;;2.15;0.88;;;;;;;8.03;98.23;99159.59;5045979;28;20036;-39
2023/12/31 14:38:05;;;;;;;0.47;0.47;;;;;;;8.00;99.69;99162.59;5051011;28;20037;-39
2023/12/31 14:40:30;;;;;;;0.95;0.70;;;;;;;8.01;99.20;99153.63;5054302;28;20066;-39
2023/12/31 14:42:56;;;;;;;0.65;0.60;;;;;;;8.08;98.94;99149.25;5054428;28;20037;-41
2023/12/31 14:45:21;;;;;;;0.98;0.90;;;;;;;7.91;100.00;99149.63;5054320;28;20048;-41
2023/12/31 14:47:48;;;;;;;2.55;0.70;;;;;;;7.92;99.44;99140.66;5050679;28;20083;-40
2023/12/31 14:50:14;;;;;;;2.00;0.90;;;;;;;8.01;98.92;99135.06;5061072;28;20433;-39
2023/12/31 14:52:39;;;;;;;2.22;1.00;;;;;;;8.07;97.42;99149.44;5047171;28;20037;-39
2023/12/31 14:55:05;;;;;;;1.10;0.90;;;;;;;8.08;96.80;99170.47;5046392;28;20082;-40
2023/12/31 14:57:31;;;;;;;0.88;0.80;;;;;;;8.01;97.47;99172.19;5047873;28;20114;-39
2023/12/31 14:59:56;;;;;;;0.63;0.55;;;;;;;8.09;96.90;99166.00;5044420;28;20041;-40
2023/12/31 15:02:23;;;;;;;0.90;0.77;;;;;;;7.92;97.20;99162.69;5048198;28;20041;-39
2023/12/31 15:04:49;;;;;;;2.50;1.10;;;;;;;7.94;97.72;99149.25;5045690;28;20036;-41
2023/12/31 15:07:14;;;;;;;1.02;0.90;;;;;;;7.93;97.65;99163.53;5047122;28;20118;-39
2023/12/31 15:09:40;;;;;;;0.80;0.80;;;;;;;7.88;97.44;99180.78;5046529;28;20655;-38
2023/12/31 15:12:07;;;;;;;2.47;1.10;;;;;;;7.83;98.75;99195.63;5046579;28;20440;-39
2023/12/31 15:14:32;;;;;;;1.48;0.95;;;;;;;7.76;99.44;99199.97;5047150;28;20068;-38
2023/12/31 15:16:58;;;;;;;1.02;0.70;;;;;;;7.60;100.00;99207.06;5044590;28;20064;-39
2023/12/31 15:19:23;;;;;;;0.88;0.82;;;;;;;7.66;100.00;99210.84;5047650;28;20460;-39
2023/12/31 15:21:49;;;;;;;1.08;0.85;;;;;;;7.64;100.00;99215.50;5044372;28;20128;-38
2023/12/31 15:24:15;;;;;;;1.60;0.75;;;;;;;7.48;100.00;99228.88;5046726;28;20056;-39
2023/12/31 15:26:41;;;;;;;1.85;0.80;;;;;;;7.46;100.00;99231.72;5045676;28;20423;-39
2023/12/31 15:29:07;;;;;;;1.77;0.90;;;;;;;7.51;100.00;99212.66;5046218;28;20053;-39
2023/12/31 15:31:35;;;;;;;0.45;0.45;;;;;;;7.40;100.00;99192.69;5047284;28;20025;-37
2023/12/31 15:34:01;;;;;;;1.52;0.82;;;;;;;7.36;100.00;99201.97;5045468;28;20024;-39
2023/12/31 15:36:26;;;;;;;1.42;0.70;;;;;;;7.52;100.00;99208.97;5047376;28;20120;-39
2023/12/31 15:38:51;;;;;;;1.25;0.85;;;;;;;7.50;100.00;99203.03;5044670;28;20045;-36
2023/12/31 15:41:18;;;;;;;0.88;0.73;;;;;;;7.42;100.00;99200.44;5047479;28;20036;-39
2023/12/31 15:43:43;;;;;;;0.60;0.60;;;;;;;7.34;100.00;99207.47;5045892;28;20040;-38
2023/12/31 15:46:09;;;;;;;0.50;0.50;;;;;;;7.31;100.00;99191.09;5051824;28;20415;-41
2023/12/31 15:48:37;;;;;;;1.85;1.15;;;;;;;7.28;100.00;99189.63;5047109;28;20075;-38
2023/12/31 15:51:04;;;;;;;2.58;1.33;;;;;;;7.33;100.00;99194.41;5047305;28;20437;-41
2023/12/31 15:53:29;;;;;;;1.10;0.63;;;;;;;7.39;100.00;99196.34;5045219;28;20514;-37
2023/12/31 15:55:54;;;;;;;0.95;0.43;;;;;;;7.31;100.00;99193.75;5046200;28;20124;-39
2023/12/31 15:58:20;;;;;;;0.70;0.68;;;;;;;7.31;100.00;99201.72;5046472;28;20439;-39
2023/12/31 16:00:45;;;;;;;1.73;0.77;;;;;;;7.23;100.00;99197.28;5045075;28;20049;-38
2023/12/31 16:03:11;;;;;;;0.90;0.70;;;;;;;7.18;100.00;99190.88;5046870;28;20037;-38
2023/12/31 16:05:36;;;;;;;0.93;0.60;;;;;;;7.09;100.00;99200.69;5042991;28;20068;-40
2023/12/31 16:08:01;;;;;;;0.85;0.65;;;;;;;7.16;100.00;99195.50;5046935;28;20119;-37
2023/12/31 16:10:28;;;;;;;0.45;0.45;;;;;;;7.17;100.00;99213.91;5045244;28;20059;-38
2023/12/31 16:12:53;;;;;;;1.30;0.77;;;;;;;7.14;100.00;99219.53;5046414;28;20033;-38
2023/12/31 16:15:19;;;;;;;1.05;0.60;;;;;;;7.25;100.00;99231.56;5047214;28;20040;-39
2023/12/31 16:17:44;;;;;;;0.50;0.50;;;;;;;7.18;100.00;99226.13;5045789;28;20045;-38
2023/12/31 16:20:10;;;;;;;1.77;0.82;;;;;;;7.07;100.00;99221.22;5046498;28;20060;-39
2023/12/31 16:22:35;;;;;;;2.30;0.75;;;;;;;7.03;100.00;99219.94;5043970;28;20120;-39
2023/12/31 16:25:01;;;;;;;1.58;0.90;;;;;;;7.10;100.00;99230.63;5046648;28;20037;-41
2023/12/31 16:27:27;;;;;;;1.20;0.80;;;;;;;7.06;100.00;99233.66;5044736;28;20037;-38
2023/12/31 16:29:52;;;;;;;1.23;0.80;;;;;;;7.04;100.00;99234.81;5045533;28;20068;-37
2023/12/31 16:32:17;;;;;;;0.98;0.63;;;;;;;7.08;100.00;99230.81;5045646;28;20029;-38
2023/12/31 16:34:43;;;;;;;1.55;0.60;;;;;;;7.08;100.00;99230.81;5043626;28;20037;-39
2023/12/31 16:38:06;;;;;;;0.90;0.60;;;;;;;6.88;100.00;99221.69;5076682;28;20172;-38
2023/12/31 16:40:32;;;;;;;0.28;0.28;;;;;;;6.92;100.00;99207.09;5063623;28;20048;-40
2023/12/31 16:42:57;;;;;;;0.77;0.60;;;;;;;6.93;100.00;99214.03;5059958;28;20280;-39
2023/12/31 16:45:22;;;;;;;1.02;0.60;;;;;;;6.95;100.00;99215.50;5063828;28;20036;-38
2023/12/31 16:47:48;;;;;;;0.80;0.80;;;;;;;7.06;100.00;99215.13;5060494;28;20033;-38
2023/12/31 16:50:13;;;;;;;1.38;0.90;;;;;;;7.03;100.00;99193.44;5065668;28;20033;-38
2023/12/31 16:52:39;;;;;;;2.08;0.80;;;;;;;7.00;100.00;99205.22;5068809;28;20490;-39